Αναφορές METAR

 

LGKR - Ioannis Kapodist, Greece
Απόσταση από το σταθμό: ΝΝΑ 16km
Ενημερώθηκε: 21/05/2018 07:20
Κυρίως Νεφελώδης
Κυρίως Νεφελώδης
 Ανεμος από Δ
Ανεμος: Δ 7 km/h
Θερμοκρασία: 18°C
Σημείο Δρόσου: 17°C
Υγρασία: 94%
Βαρόμετρο: 1011 hPa
Νέφωση: Κυρίως Νεφελώδης
Ορατότητα: 10 km
Λεπτομέρειες νέφωσης: Διάσπαρτα Νέφη 1067 m
Κυρίως Νεφελώδης 2438 m
2018/05/21 04:20 LGKR 210420Z 28004KT 9999 FEW035 BKN080 18/17 Q1011 NOSIG
LGIO - Ioannina, Greece
Απόσταση από το σταθμό: Α 84km
Ενημερώθηκε: 20/05/2018 22:20
ΜΗ ΠΡΟΣΦΑΤΟ METAR
Thunderstorm, Μερικώς Νεφελώδης
Thunderstorm, Μερικώς Νεφελώδης
 Ανεμος από μεταβλητός
Ανεμος: μεταβλητός 0 km/h
Θερμοκρασία: 18°C
Σημείο Δρόσου: 17°C
Υγρασία: 94%
Βαρόμετρο: 1014 hPa
Summary: Thunderstorm
Νέφωση: Μερικώς Νεφελώδης
Ορατότητα: 10 km
Λεπτομέρειες νέφωσης: Μερικώς Νεφελώδης 762 m
Μερικώς Νεφελώδης 914 m
2018/05/20 19:20 LGIO 201920Z /////KT 9999 TS SCT025CB SCT030TCU 18/17 Q1014 RERA
 
LGPZ - Preveza/Aktion, Greece
Απόσταση από το σταθμό: ΝΑ 122km
Ενημερώθηκε: 21/05/2018 07:20
Διάσπαρτα Νέφη
Διάσπαρτα Νέφη
 Ανεμος από ΒΒΔ
Ανεμος: ΒΒΔ 22 km/h
Θερμοκρασία: 21°C
Σημείο Δρόσου: 14°C
Υγρασία: 64%
Βαρόμετρο: 1012 hPa
Νέφωση: Διάσπαρτα Νέφη
Ορατότητα: 10 km
Λεπτομέρειες νέφωσης: Διάσπαρτα Νέφη 610 m
2018/05/21 04:20 LGPZ 210420Z 34012KT 9999 FEW020 21/14 Q1012
LIBY - Santa Maria Di L, Italy
Απόσταση από το σταθμό: Δ 128km
Ενημερώθηκε: 21/05/2018 06:55
Αίθριος
Αίθριος
 Ανεμος από Β
Ανεμος: Β 13 km/h
Θερμοκρασία: 18°C
Σημείο Δρόσου: 15°C
Υγρασία: 83%
Βαρόμετρο: 1011 hPa
Summary: Αίθριος
Ορατότητα: greater than 10 km
2018/05/21 03:55 LIBY 210355Z 01007KT CAVOK 18/15 Q1011 RMK SCT FEW070 SCT200 QUK 1 QUL 0 VIS MAR 10 KM VIS MIN 9999
 
LIBN - Lecce (it-Afb), Italy
Απόσταση από το σταθμό: ΔΒΔ 155km
Ενημερώθηκε: 21/05/2018 06:55
Mist, Διάσπαρτα Νέφη
Mist, Διάσπαρτα Νέφη
 Ανεμος από ΒΒΔ
Ανεμος: ΒΒΔ 7 km/h
Θερμοκρασία: 14°C
Σημείο Δρόσου: 13°C
Υγρασία: 94%
Βαρόμετρο: 1012 hPa
Summary: Mist
Νέφωση: Διάσπαρτα Νέφη
Ορατότητα: 5 km
Λεπτομέρειες νέφωσης: Διάσπαρτα Νέφη 914 m
2018/05/21 03:55 LIBN 210355Z 33004KT 5000 BR FEW030 14/13 Q1012 RMK SCT VIS MIN 5000 WIND THR14 31003KT WIND THR32 31002KT WHT
LWOH - Ohrid, Macedonia
Απόσταση από το σταθμό: ΒΒΑ 177km
Ενημερώθηκε: 20/05/2018 21:30
ΜΗ ΠΡΟΣΦΑΤΟ METAR
Κοντινή καταιγίδα, Μερικώς Νεφελώδης
Κοντινή καταιγίδα, Μερικώς Νεφελώδης
 Ανεμος από ΒΑ
Ανεμος: ΒΑ 9 km/h
Θερμοκρασία: 20°C
Σημείο Δρόσου: 9°C
Υγρασία: 49%
Βαρόμετρο: 1015 hPa
Summary: Κοντινή καταιγίδα
Νέφωση: Μερικώς Νεφελώδης
Ορατότητα: 10 km
Λεπτομέρειες νέφωσης: Μερικώς Νεφελώδης 1219 m
Μερικώς Νεφελώδης 1524 m
2018/05/20 18:30 LWOH 201830Z 04005KT 350V080 9999 VCTS SCT040CB SCT050 20/09 Q1015
 
LGKZ - Kozani (civ/Army, Greece
Απόσταση από το σταθμό: ΑΒΑ 180km
Ενημερώθηκε: 20/05/2018 20:50
ΜΗ ΠΡΟΣΦΑΤΟ METAR
Thunderstorm rain, Νεφοσκεπής
Thunderstorm rain, Νεφοσκεπής
 Ανεμος από Ν
Ανεμος: Ν 13 km/h
Θερμοκρασία: 15°C
Σημείο Δρόσου: 13°C
Υγρασία: 88%
Βαρόμετρο: 1016 hPa
Summary: Thunderstorm Rain
Νέφωση: Νεφοσκεπής
Ορατότητα: 8 km
Λεπτομέρειες νέφωσης: Διάσπαρτα Νέφη 610 m
Κυρίως Νεφελώδης 762 m
Νεφοσκεπής 2134 m
2018/05/20 17:50 LGKZ 201750Z 17007KT 8000 TSRA FEW020CB BKN025 OVC070 15/13 Q1016
LATI - Tirana, Albania
Απόσταση από το σταθμό: Β 186km
Ενημερώθηκε: 21/05/2018 07:20
Αίθριος
Αίθριος
 Ανεμος από ΝΑ
Ανεμος: ΝΑ 6 km/h
Θερμοκρασία: 16°C
Σημείο Δρόσου: 16°C
Υγρασία: 100%
Βαρόμετρο: 1013 hPa
Summary: Αίθριος
Ορατότητα: greater than 10 km
2018/05/21 04:20 LATI 210420Z 13003KT CAVOK 16/16 Q1013 NOSIG
 
LIBR - Brindisi/Casale, Italy
Απόσταση από το σταθμό: ΔΒΔ 189km
Ενημερώθηκε: 21/05/2018 07:20
Αίθριος
Αίθριος
 Ανεμος από ΒΔ
Ανεμος: ΒΔ 11 km/h
Θερμοκρασία: 19°C
Σημείο Δρόσου: 17°C
Υγρασία: 88%
Βαρόμετρο: 1012 hPa
Summary: Αίθριος
Ορατότητα: greater than 10 km
2018/05/21 04:20 LIBR 210420Z 32006KT CAVOK 19/17 Q1012
LGKF - Kefallinia, Greece
Απόσταση από το σταθμό: ΝΝΑ 190km
Ενημερώθηκε: 21/05/2018 06:50
Μερικώς Νεφελώδης
Μερικώς Νεφελώδης
 Ανεμος από calm
Ανεμος: Απνοια
Θερμοκρασία: 18°C
Σημείο Δρόσου: 14°C
Υγρασία: 78%
Βαρόμετρο: 1010 hPa
Νέφωση: Μερικώς Νεφελώδης
Ορατότητα: 10 km
Λεπτομέρειες νέφωσης: Μερικώς Νεφελώδης 762 m
2018/05/21 03:50 LGKF 210350Z 00000KT 9999 SCT025 18/14 Q1010
 
LGRX - Araxos (civ/Afb), Greece
Απόσταση από το σταθμό: ΝΑ 222km
Ενημερώθηκε: 21/05/2018 07:20
Διάσπαρτα Νέφη
Διάσπαρτα Νέφη
 Ανεμος από ΒΑ
Ανεμος: ΒΑ 19 km/h
Θερμοκρασία: 22°C
Σημείο Δρόσου: 14°C
Υγρασία: 61%
Βαρόμετρο: 1010 hPa
Νέφωση: Διάσπαρτα Νέφη
Ορατότητα: 10 km
Λεπτομέρειες νέφωσης: Διάσπαρτα Νέφη 2743 m
2018/05/21 04:20 LGRX 210420Z 04010KT 9999 FEW090 22/14 Q1010
LIBG - Grottaglie(Civ/A, Italy
Απόσταση από το σταθμό: ΔΒΔ 226km
Ενημερώθηκε: 01/01/1970 02:00
ΜΗ ΠΡΟΣΦΑΤΟ METAR
unable to load LIBG data RC=404 Not Found
unable to load LIBG data RC=404 Not Found
 
 
LGAD - Andravida (civ/A, Greece
Απόσταση από το σταθμό: ΝΝΑ 238km
Ενημερώθηκε: 21/05/2018 07:20
Διάσπαρτα Νέφη
Διάσπαρτα Νέφη
 Ανεμος από calm
Ανεμος: Απνοια
Θερμοκρασία: 15°C
Σημείο Δρόσου: 13°C
Υγρασία: 88%
Βαρόμετρο: 1010 hPa
Νέφωση: Διάσπαρτα Νέφη
Ορατότητα: 10 km
Λεπτομέρειες νέφωσης: Διάσπαρτα Νέφη 2438 m
2018/05/21 04:20 LGAD 210420Z 00000KT 9999 FEW080 15/13 Q1010
LGZA - Zakinthos Airpor, Greece
Απόσταση από το σταθμό: ΝΝΑ 239km
Ενημερώθηκε: 21/05/2018 07:20
Διάσπαρτα Νέφη
Διάσπαρτα Νέφη
 Ανεμος από ΒΒΔ
Ανεμος: ΒΒΔ 11 km/h
Θερμοκρασία: 20°C
Σημείο Δρόσου: 15°C
Υγρασία: 73%
Βαρόμετρο: 1011 hPa
Νέφωση: Διάσπαρτα Νέφη
Ορατότητα: 10 km
Λεπτομέρειες νέφωσης: Διάσπαρτα Νέφη 762 m
2018/05/21 04:20 LGZA 210420Z 33006KT 9999 FEW025 20/15 Q1011
 
LIBC - Crotone, Italy
Απόσταση από το σταθμό: ΔΝΔ 253km
Ενημερώθηκε: 21/05/2018 00:50
ΜΗ ΠΡΟΣΦΑΤΟ METAR
Αίθριος
Αίθριος
 Ανεμος από ΔΒΔ
Ανεμος: ΔΒΔ 9 km/h
Θερμοκρασία: 17°C
Σημείο Δρόσου: 15°C
Υγρασία: 88%
Βαρόμετρο: 1013 hPa
Summary: Αίθριος
Ορατότητα: greater than 10 km
2018/05/20 21:50 LIBC 202150Z 30005KT CAVOK 17/15 Q1013
LGBL - Nea Anchialos, Greece
Απόσταση από το σταθμό: ΑΝΑ 261km
Ενημερώθηκε: 21/05/2018 07:20
Μερικώς Νεφελώδης
Μερικώς Νεφελώδης
 Ανεμος από Δ
Ανεμος: Δ 7 km/h
Θερμοκρασία: 18°C
Σημείο Δρόσου: 16°C
Υγρασία: 88%
Βαρόμετρο: 1015 hPa
Νέφωση: Μερικώς Νεφελώδης
Ορατότητα: 10 km
Λεπτομέρειες νέφωσης: Διάσπαρτα Νέφη 914 m
Μερικώς Νεφελώδης 2438 m
2018/05/21 04:20 LGBL 210420Z 27004KT 9999 FEW030 SCT080 18/16 Q1015
 
LIBH - Marina Di Ginosa, Italy
Απόσταση από το σταθμό: ΔΒΔ 264km
Ενημερώθηκε: 21/05/2018 06:55
Αίθριος
Αίθριος
 Ανεμος από ΒΔ
Ανεμος: ΒΔ 11 km/h
Θερμοκρασία: 16°C
Σημείο Δρόσου: 14°C
Υγρασία: 88%
Βαρόμετρο: 1012 hPa
Summary: Αίθριος
Ορατότητα: greater than 10 km
2018/05/21 03:55 LIBH 210355Z 31006KT CAVOK 16/14 Q1012 RMK SCT SCT070 QUK 1 QUL 0 VIS MAR 25 KM VIS MIN 9999
LIBV - Gioia Del Colle, Italy
Απόσταση από το σταθμό: ΔΒΔ 273km
Ενημερώθηκε: 21/05/2018 06:55
Αίθριος
Αίθριος
 Ανεμος από ΒΔ
Ανεμος: ΒΔ 7 km/h
Θερμοκρασία: 13°C
Σημείο Δρόσου: 13°C
Υγρασία: 100%
Βαρόμετρο: 1013 hPa
Summary: Αίθριος
Ορατότητα: greater than 10 km
2018/05/21 03:55 LIBV 210355Z 32004KT CAVOK 13/13 Q1013 RMK SKC VIS MIN 9999 WIND THR32 33004KT WIND THR14 31002KT BLU
 
LGTS - Thessaloniki/Mik, Greece
Απόσταση από το σταθμό: ΑΒΑ 279km
Ενημερώθηκε: 21/05/2018 07:20
Ασθενής Βροχή, Κυρίως Νεφελώδης
Ασθενής Βροχή, Κυρίως Νεφελώδης
 Ανεμος από ΒΔ
Ανεμος: ΒΔ 11 km/h
Θερμοκρασία: 19°C
Σημείο Δρόσου: 15°C
Υγρασία: 78%
Βαρόμετρο: 1016 hPa
Summary: Ασθενής Βροχή
Νέφωση: Κυρίως Νεφελώδης
Ορατότητα: 10 km
Λεπτομέρειες νέφωσης: Διάσπαρτα Νέφη 244 m
Διάσπαρτα Νέφη 549 m
Κυρίως Νεφελώδης 762 m
2018/05/21 04:20 LGTS 210420Z 31006KT 9999 -RA FEW008 FEW018TCU BKN025 19/15 Q1016 NOSIG
LWSK - Skopje/Petrovac, Macedonia
Απόσταση από το σταθμό: ΒΒΑ 289km
Ενημερώθηκε: 21/05/2018 07:30
Κυρίως Νεφελώδης
Κυρίως Νεφελώδης
 Ανεμος από Ν
Ανεμος: Ν 4 km/h
Θερμοκρασία: 15°C
Σημείο Δρόσου: 14°C
Υγρασία: 94%
Βαρόμετρο: 1017 hPa
Νέφωση: Κυρίως Νεφελώδης
Ορατότητα: 10 km
Λεπτομέρειες νέφωσης: Διάσπαρτα Νέφη 1402 m
Κυρίως Νεφελώδης 3048 m
2018/05/21 04:30 LWSK 210430Z 18002KT 9999 FEW046 BKN100 15/14 Q1017 NOSIG


 ♦     ♦     ♦     Ποτέ μη βασίζετε κρίσιμες αποφάσεις σ'αυτές ή οποιεσδήποτε πληροφορίες καιρού από το Internet     ♦     ♦     ♦